x

Monterey - 27nm Wnw Of Monterey, Ca (46042) Wave Buoy

10:50pm - Tue 7th Jul 2015 All times are PDT. -7 hours from GMT.

  • Sig Wave height 3.3ft
  • Swell Direction
  • Peak Period 13s
  • Average Period 8s
  • Wind
    13mph, 16mph gusts
  • Sea Temp 62°f
  • Air Temp 61°f
  • Sea Pressure 1014.6mb
  • Monterey - 27nm Wnw Of Monterey, Ca
  • Monterey - 27nm Wnw Of Monterey, Ca

More Historic Weather Station data

Upgrade to MSW Pro to gain access to the past 30 days of data for over 8000 Wavebouys and Weather Stations around the globe.

Join Pro

Comparision Forecast

View Surf forecast
   
Tue 07/07 10:50pm 3.5ft 13s 8s 13 16 mph 1014.6mb 62f 61f
9:50pm 3.5ft 19s 8s 13 16 mph 1014.4mb 62f 61f
8:50pm 3.5ft 13s 7s 13 16 mph 1014.3mb 62f 61f
7:50pm 3ft 19s 8s 13 16 mph 1014.3mb 63f 60f
6:50pm 3.5ft 13s 9s 11 13 mph 1014mb 63f 63f
5:50pm 3ft 19s 9s 11
mph
1014.1mb 64f 63f
4:50pm 3.5ft 14s 10s 9 11 mph 1014.7mb 64f 63f
3:50pm 3ft 14s 10s 11
mph
1015.3mb 64f 63f
2:50pm 3ft 14s 10s 7
mph
1015.9mb 64f 63f
1:50pm 3.5ft 19s 10s 7
mph
1016.7mb 63f 63f
12:50pm 3ft 13s 9s 4 7 mph 1017.5mb 63f 63f
11:50am 3.5ft 13s 10s 2 4 mph 1017.8mb 62f 62f
10:50am 3ft 14s 9s  -  2 mph 1017.6mb 61f 62f
9:50am 3ft 14s 9s 4
mph
1017.6mb 61f 61f
8:50am 3.5ft 14s 9s 4 7 mph 1017.7mb 61f 60f
7:50am 3ft 14s 9s 4 7 mph 1017.6mb 61f 60f
6:50am 3ft 14s 9s 2
mph
1017.6mb 61f 60f
5:50am 3.5ft 14s 9s 2 4 mph 1017.2mb 61f 60f
4:50am 3ft 14s 8s 2 4 mph 1017.1mb 61f 60f
3:50am 3ft 14s 8s 2 4 mph 1017mb 61f 60f
2:50am 3ft 14s 9s 2 4 mph 1017.2mb 61f 61f
1:50am 3.5ft 10s 9s 4
mph
1017.4mb 61f 61f
12:50am 3.5ft 14s 9s 4 7 mph 1017.6mb 61f 60f
Mon 07/06 11:50pm 3ft 14s 9s 4 7 mph 1017.7mb 61f 60f
10:50pm 3.5ft 15s 9s 7 9 mph 1018mb 61f 60f
9:50pm 3ft 15s 9s 7 9 mph 1017.7mb 62f 61f
8:50pm 3.5ft 14s 9s 9 11 mph 1017.3mb 62f 61f
7:50pm 3ft 13s 8s 11
mph
1017.3mb 62f 62f
6:50pm 3.5ft 14s 9s 11
mph
1017.1mb 62f 62f
5:50pm 3ft 15s 9s 11
mph
1017.2mb 62f 61f
4:50pm 3ft 15s 8s 9 11 mph 1017.7mb 63f 61f
3:50pm 3ft 14s 9s 11 13 mph 1018.1mb 63f 61f
2:50pm 3.5ft 14s 10s 13
mph
1018.7mb 63f 62f
1:50pm 3.5ft 15s 10s 11 13 mph 1019.2mb 63f 61f
12:50pm 3.5ft 14s 9s 9 11 mph 1019.6mb 62f 61f
11:50am 3.5ft 15s 9s 7 9 mph 1019.8mb 62f 60f
10:50am 3.5ft 15s 9s 7 9 mph 1019.8mb 62f 60f
9:50am 3ft 14s 9s 7 9 mph 1019.8mb 61f 60f
8:50am 3.5ft 15s 9s 7 9 mph 1019.6mb 61f 61f
7:50am 3.5ft 15s 9s 4 7 mph 1019.2mb 61f 61f
6:50am 3.5ft 13s 9s 7 9 mph 1018.7mb 61f 61f
5:50am 3.5ft 14s 8s 7 9 mph 1018mb 61f 61f
4:50am 3.5ft 14s 9s 11
mph
1017.5mb 62f 60f
3:50am 3.5ft 15s 9s 7 9 mph 1017.4mb 62f 61f
2:50am 3ft 15s 9s 4 7 mph 1017.3mb 62f 60f
1:50am 3.5ft 15s 9s 4
mph
1017.2mb 62f 60f
12:50am 3.5ft 15s 9s 4 7 mph 1017.1mb 62f 61f
Sun 07/05 11:50pm 3ft 15s 9s 4 7 mph 1016.8mb 62f 61f
10:50pm 3.5ft 15s 9s 4
mph
1016.8mb 62f 61f
9:50pm 3.5ft 15s 9s 4 7 mph 1016.4mb 62f 61f
8:50pm 3.5ft 13s 8s 4 7 mph 1015.9mb 62f 61f
7:50pm 3.5ft 15s 8s 7 11 mph 1015.7mb 62f 61f
6:50pm 2.5ft 15s 8s 7 11 mph 1015.3mb 63f 62f
5:50pm 3ft 15s 8s 7 11 mph 1015.3mb 63f 62f
4:50pm 3ft 14s 8s 7 9 mph 1015.3mb 64f 62f
3:50pm 3ft 15s 7s 4 7 mph 1015.7mb 63f 62f
2:50pm 3.5ft 15s 8s 2 4 mph 1016mb 63f 61f
1:50pm 3.5ft 14s 7s 4 7 mph 1016.4mb 63f 60f
12:50pm 3.5ft 16s 7s 4 7 mph 1016.6mb 62f 60f
11:50am 3.5ft 16s 8s 7 9 mph 1016.7mb 62f 61f
10:50am 2.5ft 16s 8s 7 9 mph 1016.4mb 62f 60f
9:50am 3.5ft 16s 8s 7
mph
1016.1mb 61f 60f
8:50am 3.5ft 16s 9s 7 9 mph 1015.8mb 61f 59f
7:50am 3ft 16s 8s 7 9 mph 1015.3mb 61f 59f
6:50am 3.5ft 16s 8s 7
mph
1014.8mb 61f 59f
5:50am 3.5ft 15s 8s 7 9 mph 1013.9mb 61f 59f
4:50am 3.5ft 14s 8s 4 7 mph 1013.6mb 61f 59f
3:50am 3.5ft 15s 8s 7
mph
1013.3mb 61f 60f
2:50am 3.5ft 9s 7s 4
mph
1013.2mb 61f 59f
1:50am 3.5ft 15s 8s 9
mph
1012.9mb 61f 59f
12:50am 3.5ft 13s 8s 4 7 mph 1013.2mb 61f 60f
Sat 07/04 11:50pm 3.5ft 15s 8s 4
mph
1013.3mb 61f 60f
10:50pm 3ft 15s 8s 7 9 mph 1013.4mb 62f 60f
9:50pm 3ft 15s 8s 4 7 mph 1013.1mb 62f 60f
8:50pm 3.5ft 15s 8s 4
mph
1012.7mb 62f 60f
7:50pm 3.5ft 16s 8s 4 9 mph 1012.4mb 62f 60f
6:50pm 3.5ft 16s 8s 4
mph
1012.4mb 62f 61f
5:50pm 3.5ft 15s 8s 7 9 mph 1012.5mb 62f 60f
4:50pm 3.5ft 16s 8s 7 9 mph 1012.5mb 62f 60f
3:50pm 3.5ft 9s 8s 9 11 mph 1012.9mb 62f 61f
2:50pm 4ft 16s 9s 9
mph
1012.7mb 62f 60f
1:50pm 3.5ft 9s 8s 7 9 mph 1012.9mb 62f 61f
12:50pm 3.5ft 16s 8s 7 9 mph 1012.9mb 62f 60f
11:50am 3.5ft 16s 8s 7 9 mph 1013mb 61f 60f
10:50am 3.5ft 15s 8s  -  2 mph 1013mb 61f 59f
9:50am 3.5ft 8s 8s 2 4 mph 1012.9mb 61f 58f
8:50am 3.5ft 12s 8s 2 4 mph 1012.9mb 60f 58f
7:50am 3.5ft 9s 8s 4 7 mph 1012.5mb 60f 58f